createdAt,value
2022-09-01T00:00:01.945Z,99.90
2022-09-01T00:02:29.460Z,99.90
2022-09-01T00:04:58.532Z,99.90
2022-09-01T00:07:26.344Z,99.90
2022-09-01T00:09:53.231Z,99.90
2022-09-01T00:12:22.681Z,99.90
2022-09-01T00:14:49.425Z,99.90
2022-09-01T00:17:16.022Z,99.90
2022-09-01T00:19:42.730Z,99.90
2022-09-01T00:22:09.377Z,99.90
2022-09-01T00:24:36.068Z,99.90
2022-09-01T00:27:03.017Z,99.90
2022-09-01T00:29:29.642Z,99.90
2022-09-01T00:31:56.292Z,99.90
2022-09-01T00:34:23.153Z,99.90
2022-09-01T00:36:49.788Z,99.90
2022-09-01T00:39:16.479Z,99.90
2022-09-01T00:41:44.829Z,99.90
2022-09-01T00:56:38.381Z,99.90
2022-09-01T01:01:36.738Z,99.90
2022-09-01T01:04:05.050Z,99.90
2022-09-01T01:06:33.165Z,99.90
2022-09-01T01:09:01.445Z,99.90
2022-09-01T01:13:55.960Z,99.90
2022-09-01T01:16:24.204Z,99.90
2022-09-01T01:18:51.860Z,99.90
2022-09-01T01:24:22.364Z,99.90
2022-09-01T01:26:49.380Z,99.90
2022-09-01T01:29:17.628Z,99.90
2022-09-01T01:36:40.003Z,99.90
2022-09-01T01:39:08.710Z,99.90
2022-09-01T01:41:36.373Z,99.90
2022-09-01T02:01:25.247Z,99.90
2022-09-01T02:13:46.193Z,99.90
2022-09-01T02:55:47.867Z,99.90
2022-09-01T02:58:20.321Z,99.90
2022-09-01T03:08:16.115Z,99.90
2022-09-01T04:17:53.455Z,99.90
2022-09-01T04:20:21.900Z,99.90
2022-09-01T04:22:50.400Z,99.90
2022-09-01T04:25:18.314Z,99.90
2022-09-01T04:27:47.652Z,99.90
2022-09-01T04:30:14.279Z,99.90
2022-09-01T04:32:41.776Z,99.90
2022-09-01T04:35:11.483Z,99.90
2022-09-01T04:37:38.075Z,99.90
2022-09-01T04:40:04.975Z,99.90
2022-09-01T04:42:32.596Z,99.90
2022-09-01T04:45:02.025Z,99.90
2022-09-01T04:47:41.836Z,99.90
2022-09-01T04:50:17.471Z,99.90
2022-09-01T04:55:17.535Z,99.90
2022-09-01T04:57:49.442Z,99.90
2022-09-01T05:00:23.370Z,99.90
2022-09-01T05:02:54.512Z,99.90
2022-09-01T05:05:21.889Z,99.90
2022-09-01T05:07:53.071Z,99.90
2022-09-01T05:10:21.400Z,99.90
2022-09-01T05:12:48.507Z,99.90
2022-09-01T05:15:15.591Z,99.90
2022-09-01T05:20:10.337Z,99.90
2022-09-01T05:22:40.843Z,99.90
2022-09-01T05:25:13.177Z,99.90
2022-09-01T05:27:41.251Z,99.90
2022-09-01T05:30:08.612Z,99.90
2022-09-01T05:32:37.275Z,99.90
2022-09-01T05:35:08.193Z,99.90
2022-09-01T05:37:37.399Z,99.90
2022-09-01T07:47:53.920Z,99.90
2022-09-01T07:53:09.116Z,99.90
2022-09-01T07:55:36.437Z,99.90
2022-09-01T07:58:03.055Z,99.90
2022-09-01T08:00:31.915Z,99.90
2022-09-01T08:02:59.025Z,99.90
2022-09-01T08:05:27.160Z,99.90
2022-09-01T08:07:54.219Z,99.90
2022-09-01T08:10:21.513Z,99.90
2022-09-01T08:12:56.225Z,99.90
2022-09-01T08:15:41.039Z,99.90
2022-09-01T08:18:10.769Z,99.90
2022-09-01T08:20:39.883Z,99.90
2022-09-01T08:23:07.262Z,99.90
2022-09-01T08:25:35.253Z,99.90
2022-09-01T08:28:02.048Z,99.90
2022-09-01T08:30:30.088Z,99.90
2022-09-01T08:32:57.277Z,99.90
2022-09-01T08:35:23.926Z,99.90
2022-09-01T08:37:50.545Z,99.90
2022-09-01T08:40:19.862Z,99.90
2022-09-01T08:43:14.590Z,99.90
2022-09-01T08:45:44.994Z,99.90
2022-09-01T08:51:21.907Z,99.90
2022-09-01T08:54:07.231Z,99.90
2022-09-01T08:56:36.143Z,99.90
2022-09-01T08:59:03.279Z,99.90
2022-09-01T09:01:30.573Z,99.90
2022-09-01T09:04:13.674Z,99.90
2022-09-01T09:06:43.618Z,99.90
2022-09-01T09:09:10.376Z,99.90
2022-09-01T09:11:42.968Z,99.90
2022-09-01T09:14:12.761Z,99.90
2022-09-01T09:16:40.948Z,99.90
2022-09-01T09:19:09.098Z,99.90
2022-09-01T09:21:37.263Z,99.90
2022-09-01T09:24:49.928Z,99.90
2022-09-01T09:27:26.880Z,99.90
2022-09-01T09:29:55.173Z,99.90
2022-09-01T09:32:23.102Z,99.90
2022-09-01T09:34:54.813Z,99.90
2022-09-01T09:37:31.225Z,99.90
2022-09-01T09:40:10.406Z,99.90
2022-09-01T09:43:01.940Z,99.90
2022-09-01T09:45:28.787Z,99.90
2022-09-01T09:47:56.815Z,99.90
2022-09-01T09:50:26.564Z,99.90
2022-09-01T09:52:54.127Z,99.90
2022-09-01T09:55:25.927Z,99.90
2022-09-01T09:57:54.476Z,99.90
2022-09-01T10:00:24.577Z,99.90
2022-09-01T10:03:07.955Z,99.90
2022-09-01T10:05:43.315Z,99.80
2022-09-01T10:08:12.360Z,99.90
2022-09-01T10:10:58.030Z,99.90
2022-09-01T10:13:27.445Z,99.90
2022-09-01T10:15:56.752Z,99.60
2022-09-01T10:18:29.595Z,99.70
2022-09-01T10:21:00.422Z,99.80
2022-09-01T10:23:31.734Z,96.20
2022-09-01T10:26:18.915Z,94.80
2022-09-01T10:28:54.560Z,94.20
2022-09-01T10:31:21.538Z,91.80
2022-09-01T10:33:49.017Z,91.20
2022-09-01T10:36:15.905Z,90.00
2022-09-01T10:38:50.354Z,86.60
2022-09-01T10:41:39.147Z,84.50
2022-09-01T10:44:10.744Z,81.60
2022-09-01T10:46:40.912Z,82.50
2022-09-01T10:49:25.171Z,81.00
2022-09-01T10:51:56.285Z,78.40
2022-09-01T10:54:51.108Z,79.20
2022-09-01T10:57:27.775Z,78.50
2022-09-01T10:59:58.105Z,80.40
2022-09-01T11:02:27.633Z,81.80
2022-09-01T11:04:55.391Z,80.90
2022-09-01T11:07:44.562Z,79.20
2022-09-01T11:10:31.419Z,78.70
2022-09-01T11:13:07.873Z,75.60
2022-09-01T11:15:35.431Z,77.70
2022-09-01T11:18:03.179Z,79.60
2022-09-01T11:20:34.525Z,77.00
2022-09-01T11:23:01.711Z,81.40
2022-09-01T11:25:40.908Z,76.30
2022-09-01T11:28:07.837Z,75.40
2022-09-01T11:30:56.040Z,73.60
2022-09-01T11:33:25.678Z,72.30
2022-09-01T11:36:00.749Z,71.10
2022-09-01T11:38:28.698Z,70.10
2022-09-01T11:40:56.392Z,73.40
2022-09-01T11:43:23.820Z,69.30
2022-09-01T11:45:53.775Z,67.40
2022-09-01T11:48:20.522Z,70.00
2022-09-01T11:50:56.791Z,72.30
2022-09-01T11:53:23.933Z,71.20
2022-09-01T11:55:51.793Z,71.40
2022-09-01T11:58:27.780Z,72.60
2022-09-01T12:00:55.513Z,68.60
2022-09-01T12:03:27.182Z,69.90
2022-09-01T12:06:01.598Z,69.10
2022-09-01T12:08:36.746Z,79.20
2022-09-01T12:11:06.480Z,74.50
2022-09-01T12:13:33.465Z,75.60
2022-09-01T12:16:18.653Z,72.50
2022-09-01T12:18:48.204Z,73.20
2022-09-01T12:21:20.789Z,74.60
2022-09-01T12:23:47.653Z,74.00
2022-09-01T12:26:40.666Z,77.30
2022-09-01T12:29:07.569Z,77.00
2022-09-01T12:31:34.623Z,75.00
2022-09-01T12:34:04.619Z,76.60
2022-09-01T12:36:33.335Z,76.20
2022-09-01T12:39:20.163Z,76.10
2022-09-01T12:41:50.493Z,75.20
2022-09-01T12:44:30.317Z,73.50
2022-09-01T12:47:06.767Z,70.40
2022-09-01T12:49:41.195Z,71.50
2022-09-01T12:52:19.984Z,71.90
2022-09-01T12:54:48.229Z,70.30
2022-09-01T12:57:28.929Z,72.80
2022-09-01T13:00:09.216Z,69.40
2022-09-01T13:02:37.754Z,70.30
2022-09-01T13:05:43.047Z,72.50
2022-09-01T13:08:11.006Z,77.90
2022-09-01T13:10:41.181Z,80.00
2022-09-01T13:13:10.481Z,81.60
2022-09-01T13:15:38.508Z,82.30
2022-09-01T13:18:05.176Z,82.80
2022-09-01T13:20:31.885Z,84.00
2022-09-01T13:22:59.636Z,79.90
2022-09-01T13:25:27.081Z,79.10
2022-09-01T13:27:54.887Z,79.60
2022-09-01T13:30:22.841Z,77.20
2022-09-01T13:35:36.625Z,75.70
2022-09-01T13:38:03.243Z,77.20
2022-09-01T13:40:29.968Z,78.70
2022-09-01T13:42:56.604Z,81.40
2022-09-01T13:45:25.774Z,82.00
2022-09-01T13:53:26.940Z,87.10
2022-09-01T13:55:53.902Z,87.80
2022-09-01T13:58:20.809Z,86.60
2022-09-01T14:00:47.901Z,86.60
2022-09-01T14:03:18.013Z,84.30
2022-09-01T14:05:45.906Z,84.50
2022-09-01T14:08:16.456Z,82.40
2022-09-01T14:10:45.135Z,80.20
2022-09-01T14:13:12.433Z,78.90
2022-09-01T14:18:06.166Z,80.20
2022-09-01T14:20:39.459Z,78.60
2022-09-01T14:23:06.986Z,78.80
2022-09-01T14:25:33.804Z,76.20
2022-09-01T14:28:02.107Z,76.50
2022-09-01T14:30:31.750Z,77.40
2022-09-01T14:33:02.188Z,79.20
2022-09-01T14:35:33.219Z,80.00
2022-09-01T14:38:00.719Z,83.70
2022-09-01T14:40:29.051Z,81.10
2022-09-01T14:42:55.772Z,81.60
2022-09-01T14:45:23.912Z,80.50
2022-09-01T14:47:51.263Z,81.30
2022-09-01T14:50:22.552Z,80.70
2022-09-01T14:52:52.871Z,82.30
2022-09-01T14:55:20.063Z,83.80
2022-09-01T14:57:46.775Z,82.40
2022-09-01T15:00:13.604Z,80.30
2022-09-01T15:02:41.691Z,79.50
2022-09-01T15:05:08.832Z,81.90
2022-09-01T15:07:35.628Z,82.80
2022-09-01T15:10:02.895Z,82.60
2022-09-01T15:12:30.937Z,83.80
2022-09-01T15:14:58.994Z,82.50
2022-09-01T15:17:26.245Z,80.20
2022-09-01T15:19:52.936Z,80.10
2022-09-01T15:22:19.999Z,79.20
2022-09-01T15:24:46.670Z,79.40
2022-09-01T15:27:13.504Z,80.10
2022-09-01T15:29:45.901Z,80.20
2022-09-01T15:32:15.280Z,80.00
2022-09-01T15:34:54.316Z,80.20
2022-09-01T15:37:20.901Z,82.00
2022-09-01T15:39:47.579Z,84.20
2022-09-01T15:44:43.578Z,84.90
2022-09-01T15:47:10.477Z,86.00
2022-09-01T15:49:37.163Z,87.70
2022-09-01T15:52:03.916Z,88.40
2022-09-01T15:54:30.892Z,88.50
2022-09-01T15:56:57.597Z,87.80
2022-09-01T15:59:24.229Z,86.90
2022-09-01T16:01:53.172Z,86.40
2022-09-01T16:04:24.075Z,88.50
2022-09-01T16:06:56.646Z,88.00
2022-09-01T16:09:23.504Z,89.90
2022-09-01T16:11:50.177Z,86.60
2022-09-01T16:14:16.918Z,87.60
2022-09-01T16:16:52.728Z,84.90
2022-09-01T16:19:28.515Z,87.10
2022-09-01T16:22:21.987Z,86.90
2022-09-01T16:24:50.950Z,88.30
2022-09-01T16:27:19.912Z,87.80
2022-09-01T16:29:58.261Z,88.40
2022-09-01T16:32:25.825Z,88.80
2022-09-01T16:34:52.694Z,90.00
2022-09-01T16:37:39.627Z,90.60
2022-09-01T16:40:30.136Z,88.50
2022-09-01T16:43:16.299Z,88.20
2022-09-01T16:45:45.997Z,88.70
2022-09-01T16:48:24.475Z,89.50
2022-09-01T16:50:55.436Z,90.00
2022-09-01T16:53:34.141Z,90.00
2022-09-01T16:56:05.082Z,89.30
2022-09-01T16:58:36.600Z,90.60
2022-09-01T17:01:06.283Z,90.30
2022-09-01T17:03:43.209Z,90.50
2022-09-01T17:06:30.584Z,91.00
2022-09-01T17:09:08.820Z,90.60
2022-09-01T17:11:39.306Z,91.70
2022-09-01T17:14:06.641Z,91.60
2022-09-01T17:16:38.101Z,91.80
2022-09-01T17:19:06.849Z,91.30
2022-09-01T17:21:37.906Z,92.30
2022-09-01T17:24:18.262Z,92.00
2022-09-01T17:26:47.788Z,92.10
2022-09-01T17:29:23.092Z,91.80
2022-09-01T17:31:49.761Z,91.90
2022-09-01T17:34:23.199Z,92.20
2022-09-01T17:37:01.956Z,91.40
2022-09-01T17:39:49.354Z,91.60
2022-09-01T17:42:27.439Z,92.10
2022-09-01T17:44:56.394Z,91.90
2022-09-01T17:47:31.508Z,91.90
2022-09-01T17:50:16.891Z,92.00
2022-09-01T17:52:52.586Z,91.90
2022-09-01T17:55:25.869Z,92.00
2022-09-01T17:58:06.639Z,92.20
2022-09-01T18:00:40.098Z,92.20
2022-09-01T18:03:09.965Z,93.30
2022-09-01T18:05:40.633Z,92.40
2022-09-01T18:08:07.345Z,93.30
2022-09-01T18:10:37.013Z,93.80
2022-09-01T18:13:05.086Z,92.40
2022-09-01T18:15:39.975Z,92.90
2022-09-01T18:18:15.508Z,92.90
2022-09-01T18:20:43.862Z,92.70
2022-09-01T18:23:12.476Z,93.30
2022-09-01T18:25:45.699Z,94.00
2022-09-01T18:28:13.348Z,92.60
2022-09-01T18:30:59.494Z,93.60
2022-09-01T18:36:11.837Z,93.70
2022-09-01T18:38:47.164Z,94.20
2022-09-01T18:41:24.737Z,94.10
2022-09-01T18:44:04.583Z,94.40
2022-09-01T18:47:03.836Z,94.30
2022-09-01T18:49:49.035Z,93.80
2022-09-01T18:52:25.009Z,95.00
2022-09-01T18:55:14.711Z,95.60
2022-09-01T18:57:41.906Z,94.90
2022-09-01T19:00:18.649Z,95.70
2022-09-01T19:02:48.974Z,95.80
2022-09-01T19:05:19.898Z,95.70
2022-09-01T19:07:46.657Z,96.50
2022-09-01T19:10:19.395Z,96.30
2022-09-01T19:12:57.808Z,95.70
2022-09-01T19:15:30.151Z,96.50
2022-09-01T19:18:15.124Z,96.60
2022-09-01T19:20:41.914Z,96.30
2022-09-01T19:23:19.371Z,97.60
2022-09-01T19:25:46.236Z,96.60
2022-09-01T19:28:25.244Z,97.80
2022-09-01T19:30:54.970Z,97.00
2022-09-01T19:35:51.081Z,96.90
2022-09-01T19:38:20.559Z,97.40
2022-09-01T19:40:49.825Z,97.80
2022-09-01T19:43:18.127Z,98.10
2022-09-01T19:45:59.393Z,97.70
2022-09-01T19:48:39.381Z,98.00
2022-09-01T19:51:13.396Z,98.50
2022-09-01T19:53:43.197Z,98.40
2022-09-01T19:56:26.698Z,97.90
2022-09-01T19:58:59.985Z,98.20
2022-09-01T20:01:36.581Z,99.00
2022-09-01T20:04:21.632Z,99.00
2022-09-01T20:06:50.965Z,98.50
2022-09-01T20:09:23.421Z,99.20
2022-09-01T20:11:56.186Z,99.50
2022-09-01T20:14:29.030Z,99.20
2022-09-01T20:16:57.497Z,99.30
2022-09-01T20:19:24.090Z,99.90
2022-09-01T20:21:50.743Z,99.90
2022-09-01T20:24:31.533Z,99.90
2022-09-01T20:27:06.840Z,99.90
2022-09-01T20:29:36.300Z,99.70
2022-09-01T20:32:04.111Z,99.70
2022-09-01T20:34:45.953Z,99.90
2022-09-01T20:37:16.698Z,99.80
2022-09-01T20:40:01.755Z,99.90
2022-09-01T20:42:40.419Z,99.90
2022-09-01T20:45:10.257Z,99.90
2022-09-01T20:47:36.929Z,99.90
2022-09-01T20:50:10.613Z,99.90
2022-09-01T20:52:37.199Z,99.90
2022-09-01T20:55:09.948Z,99.90
2022-09-01T20:57:54.940Z,99.90
2022-09-01T21:00:26.077Z,99.90
2022-09-01T21:03:01.905Z,99.90
2022-09-01T21:05:47.293Z,99.90
2022-09-01T21:08:17.554Z,99.90
2022-09-01T21:10:59.324Z,99.90
2022-09-01T21:13:35.260Z,99.90
2022-09-01T21:16:07.439Z,99.90
2022-09-01T21:18:42.841Z,99.90
2022-09-01T21:21:12.269Z,99.90
2022-09-01T21:23:38.878Z,99.90
2022-09-01T21:26:05.621Z,99.90
2022-09-01T21:28:33.113Z,99.90
2022-09-01T21:30:59.980Z,99.90
2022-09-01T21:33:28.691Z,99.90
2022-09-01T21:35:55.461Z,99.90
2022-09-01T21:38:22.230Z,99.90
2022-09-01T21:40:49.322Z,99.90
2022-09-01T21:43:17.965Z,99.90
2022-09-01T21:45:44.837Z,99.90
2022-09-01T21:48:12.212Z,99.90
2022-09-01T21:50:40.494Z,99.90
2022-09-01T21:53:07.966Z,99.90
2022-09-01T21:55:35.415Z,99.90
2022-09-01T21:58:02.109Z,99.90
2022-09-01T22:00:30.281Z,99.90
2022-09-01T22:02:59.332Z,99.90
2022-09-01T22:05:26.381Z,99.90
2022-09-01T22:07:53.649Z,99.90
2022-09-01T22:10:21.443Z,99.90
2022-09-01T22:12:49.041Z,99.90
2022-09-01T22:15:20.114Z,99.90
2022-09-01T22:17:47.149Z,99.90
2022-09-01T22:20:16.009Z,99.90
2022-09-01T22:22:42.843Z,99.90
2022-09-01T22:25:11.782Z,99.90
2022-09-01T22:27:38.396Z,99.90
2022-09-01T22:30:07.747Z,99.90
2022-09-01T22:32:36.162Z,99.90
2022-09-01T22:35:04.753Z,99.90
2022-09-01T22:37:31.363Z,99.90
2022-09-01T22:39:58.000Z,99.90
2022-09-01T22:42:25.021Z,99.90
2022-09-01T22:44:51.707Z,99.90
2022-09-01T22:47:18.296Z,99.90
2022-09-01T22:49:44.908Z,99.90
2022-09-01T22:52:11.941Z,99.90
2022-09-01T22:54:41.088Z,99.90
2022-09-01T22:57:07.699Z,99.90
2022-09-01T22:59:34.314Z,99.90
2022-09-01T23:02:01.870Z,99.90
2022-09-01T23:04:32.001Z,99.90
2022-09-01T23:06:58.682Z,99.90
2022-09-01T23:09:25.365Z,99.90
2022-09-01T23:11:52.560Z,99.90
2022-09-01T23:14:19.320Z,99.90
2022-09-01T23:16:47.084Z,99.90
2022-09-01T23:19:18.714Z,99.90
2022-09-01T23:21:45.322Z,99.90
2022-09-01T23:24:11.929Z,99.90
2022-09-01T23:26:40.970Z,99.90
2022-09-01T23:29:07.639Z,99.90
2022-09-01T23:31:35.976Z,99.90
2022-09-01T23:34:03.659Z,99.90
2022-09-01T23:36:30.279Z,99.90
2022-09-01T23:38:56.889Z,99.90
2022-09-01T23:41:29.424Z,99.90
2022-09-01T23:43:56.472Z,99.90
2022-09-01T23:46:24.544Z,99.90
2022-09-01T23:48:51.547Z,99.90
2022-09-01T23:51:18.878Z,99.90
2022-09-01T23:53:46.339Z,99.90
2022-09-01T23:56:14.405Z,99.90
2022-09-01T23:58:41.384Z,99.90
